Date,TemperatureHighF,TemperatureAvgF,TemperatureLowF,DewpointHighF,DewpointAvgF,DewpointLowF,HumidityHigh,HumidityAvg,HumidityLow,PressureMaxIn,PressureMinIn,WindSpeedMaxMPH,WindSpeedAvgMPH,GustSpeedMaxMPH,PrecipitationSumIn
2014-3-1,38.5,23.3,17.1,19.7,10.7,4.8,67,59,45,29.65,29.59,0,0,0,0.00
2014-3-2,44.1,37.7,31.8,38.0,32.1,24.0,99,82,58,29.45,29.31,0,0,0,0.35
2014-3-3,31.8,18.5,7.0,31.6,13.7,4.9,99,83,52,29.66,29.32,0,0,0,0.00
2014-3-4,37.9,18.6,4.5,17.9,10.3,4.1,99,73,40,29.73,29.52,0,0,0,0.04
2014-3-5,47.8,30.4,14.7,26.4,18.6,10.8,94,64,41,29.71,29.49,0,0,0,0.00
2014-3-6,41.4,28.7,20.7,24.6,18.9,13.4,76,67,50,29.87,29.71,0,0,0,0.00
2014-3-7,45.9,34.0,27.3,35.5,28.8,21.0,99,82,66,29.67,29.26,0,0,0,0.00
2014-3-8,29.1,27.2,25.9,28.9,26.9,25.6,99,99,99,29.28,29.25,0,0,0,0.00
2014-3-9,53.1,43.9,36.1,41.2,29.7,21.6,91,60,34,29.45,29.24,0,0,0,0.00
2014-3-10,73.8,52.2,34.5,47.6,35.9,26.1,77,55,39,29.31,28.95,0,0,0,0.00
2014-3-11,73.6,61.2,51.6,53.3,46.0,38.2,73,58,48,29.03,28.93,0,0,0,0.00
2014-3-12,72.5,51.6,29.7,63.7,45.5,21.2,99,80,56,28.95,28.35,0,0,0,0.08
2014-3-13,36.7,26.5,16.2,21.4,10.1,1.9,72,51,36,29.47,28.87,0,0,0,0.00
2014-3-14,65.1,44.1,25.3,36.6,23.7,10.9,59,46,34,29.49,29.15,0,0,0,0.00
2014-3-15,67.1,55.9,48.4,44.1,35.0,28.4,77,47,31,29.37,29.10,0,0,0,0.01
2014-3-16,44.2,36.1,26.1,32.3,28.2,18.9,99,75,43,29.51,29.38,0,0,0,0.00
2014-3-17,36.3,27.9,22.6,29.9,25.7,-24.4,99,92,10,29.41,29.31,0,0,0,0.01
2014-3-18,50.2,36.7,28.6,33.1,28.2,22.3,99,73,47,29.53,29.39,0,0,0,0.00
2014-3-19,45.1,39.1,34.3,44.9,37.1,29.7,99,93,70,29.52,29.16,0,0,0,0.04
2014-3-20,57.6,47.3,37.0,42.4,36.3,29.9,99,69,41,29.32,29.12,0,0,0,0.06
2014-3-21,56.7,45.3,37.9,44.9,38.9,29.5,94,79,63,29.40,29.32,0,0,0,0.01
2014-3-22,72.7,56.1,42.3,48.0,41.8,35.9,95,63,34,29.31,29.13,0,0,0,0.00
2014-3-23,48.9,40.6,29.5,36.6,27.8,13.6,77,61,39,29.52,29.33,0,0,0,0.00
2014-3-24,47.3,31.4,18.7,18.1,12.8,10.1,69,48,28,29.63,29.43,0,0,0,0.00
2014-3-25,33.8,31.1,27.0,33.6,25.7,11.6,99,83,48,29.45,29.18,0,0,0,0.14
2014-3-26,40.3,29.9,23.9,28.2,18.5,12.7,99,65,37,29.62,29.21,0,0,0,0.00
2014-3-27,54.5,36.8,18.5,31.7,22.8,12.4,87,59,41,29.71,29.43,0,0,0,0.00
2014-3-28,68.5,54.7,44.4,61.1,47.9,28.4,99,80,48,29.44,29.26,0,0,0,0.13
2014-3-29,55.2,49.7,45.5,54.8,49.4,45.2,99,99,98,29.41,28.91,0,0,0,1.64
2014-3-30,45.9,40.6,35.6,45.6,39.6,35.3,99,96,81,29.18,28.90,0,0,0,1.07
2014-3-31,70.7,52.6,39.2,44.7,37.6,33.5,82,59,34,29.42,29.21,0,0,0,0.00